sensor_id;sensor_type;location;lat;lon;timestamp;pressure;altitude;pressure_sealevel;temperature;humidity
61119;BME280;51448;51.660;5.824;2023-05-21T00:02:04;101756.50;;;13.67;80.96
61119;BME280;51448;51.660;5.824;2023-05-21T00:04:52;101756.53;;;13.65;80.65
61119;BME280;51448;51.660;5.824;2023-05-21T00:07:40;101754.81;;;13.64;81.26
61119;BME280;51448;51.660;5.824;2023-05-21T00:10:28;101754.84;;;13.63;81.30
61119;BME280;51448;51.660;5.824;2023-05-21T00:13:16;101740.81;;;13.61;81.84
61119;BME280;51448;51.660;5.824;2023-05-21T00:16:04;101743.50;;;13.59;81.63
61119;BME280;51448;51.660;5.824;2023-05-21T00:18:52;101743.56;;;13.58;82.25
61119;BME280;51448;51.660;5.824;2023-05-21T00:21:41;101739.16;;;13.57;82.37
61119;BME280;51448;51.660;5.824;2023-05-21T00:24:29;101744.44;;;13.57;82.85
61119;BME280;51448;51.660;5.824;2023-05-21T00:27:16;101731.19;;;13.58;83.21
61119;BME280;51448;51.660;5.824;2023-05-21T00:30:05;101732.91;;;13.59;83.26
61119;BME280;51448;51.660;5.824;2023-05-21T00:32:53;101724.09;;;13.60;83.27
61119;BME280;51448;51.660;5.824;2023-05-21T00:35:41;101725.75;;;13.64;83.88
61119;BME280;51448;51.660;5.824;2023-05-21T00:38:29;101733.69;;;13.64;83.60
61119;BME280;51448;51.660;5.824;2023-05-21T00:41:19;101728.34;;;13.66;83.41
61119;BME280;51448;51.660;5.824;2023-05-21T00:44:09;101721.31;;;13.65;83.25
61119;BME280;51448;51.660;5.824;2023-05-21T00:47:01;101732.81;;;13.64;82.67
61119;BME280;51448;51.660;5.824;2023-05-21T00:49:49;101722.28;;;13.62;83.18
61119;BME280;51448;51.660;5.824;2023-05-21T00:52:41;101717.00;;;13.62;83.41
61119;BME280;51448;51.660;5.824;2023-05-21T00:55:30;101709.94;;;13.61;83.28
61119;BME280;51448;51.660;5.824;2023-05-21T00:58:18;101714.38;;;13.61;83.79
61119;BME280;51448;51.660;5.824;2023-05-21T01:01:06;101713.53;;;13.60;83.37
61119;BME280;51448;51.660;5.824;2023-05-21T01:04:00;101714.34;;;13.62;83.95
61119;BME280;51448;51.660;5.824;2023-05-21T01:06:48;101713.41;;;13.63;83.62
61119;BME280;51448;51.660;5.824;2023-05-21T01:09:36;101716.00;;;13.66;83.84
61119;BME280;51448;51.660;5.824;2023-05-21T01:12:30;101715.97;;;13.68;84.10
61119;BME280;51448;51.660;5.824;2023-05-21T01:15:19;101712.38;;;13.71;84.28
61119;BME280;51448;51.660;5.824;2023-05-21T01:18:07;101714.06;;;13.73;84.32
61119;BME280;51448;51.660;5.824;2023-05-21T01:20:56;101713.09;;;13.76;84.40
61119;BME280;51448;51.660;5.824;2023-05-21T01:23:44;101705.97;;;13.78;84.41
61119;BME280;51448;51.660;5.824;2023-05-21T01:26:33;101709.47;;;13.80;84.93
61119;BME280;51448;51.660;5.824;2023-05-21T01:29:25;101706.78;;;13.81;84.67
61119;BME280;51448;51.660;5.824;2023-05-21T01:35:13;101709.28;;;13.86;85.40
61119;BME280;51448;51.660;5.824;2023-05-21T01:38:26;101704.78;;;13.89;85.28
61119;BME280;51448;51.660;5.824;2023-05-21T01:41:18;101695.97;;;13.91;85.19
61119;BME280;51448;51.660;5.824;2023-05-21T01:44:08;101702.00;;;13.94;84.76
61119;BME280;51448;51.660;5.824;2023-05-21T01:46:58;101691.34;;;13.97;85.38
61119;BME280;51448;51.660;5.824;2023-05-21T01:49:46;101699.19;;;14.00;85.31
61119;BME280;51448;51.660;5.824;2023-05-21T01:52:35;101690.34;;;14.01;85.20
61119;BME280;51448;51.660;5.824;2023-05-21T01:55:23;101690.31;;;14.03;85.47
61119;BME280;51448;51.660;5.824;2023-05-21T01:58:11;101695.50;;;14.06;85.43
61119;BME280;51448;51.660;5.824;2023-05-21T02:00:59;101691.97;;;14.07;86.07
61119;BME280;51448;51.660;5.824;2023-05-21T02:03:47;101695.44;;;14.09;85.86
61119;BME280;51448;51.660;5.824;2023-05-21T02:06:35;101697.13;;;14.12;85.86
61119;BME280;51448;51.660;5.824;2023-05-21T02:09:26;101685.59;;;14.13;85.96
61119;BME280;51448;51.660;5.824;2023-05-21T02:12:13;101684.72;;;14.14;85.86
61119;BME280;51448;51.660;5.824;2023-05-21T02:15:02;101687.34;;;14.14;85.76
61119;BME280;51448;51.660;5.824;2023-05-21T02:17:51;101678.50;;;14.15;85.69
61119;BME280;51448;51.660;5.824;2023-05-21T02:20:39;101690.81;;;14.16;85.63
61119;BME280;51448;51.660;5.824;2023-05-21T02:23:27;101684.66;;;14.15;86.01
61119;BME280;51448;51.660;5.824;2023-05-21T02:26:15;101685.53;;;14.16;86.24
61119;BME280;51448;51.660;5.824;2023-05-21T02:29:04;101684.66;;;14.15;86.29
61119;BME280;51448;51.660;5.824;2023-05-21T02:31:52;101682.06;;;14.14;86.19
61119;BME280;51448;51.660;5.824;2023-05-21T02:34:40;101681.25;;;14.12;86.49
61119;BME280;51448;51.660;5.824;2023-05-21T02:37:31;101679.56;;;14.09;86.65
61119;BME280;51448;51.660;5.824;2023-05-21T02:40:20;101678.78;;;14.05;86.48
61119;BME280;51448;51.660;5.824;2023-05-21T02:43:08;101682.41;;;14.01;86.14
61119;BME280;51448;51.660;5.824;2023-05-21T02:45:56;101680.78;;;13.97;86.33
61119;BME280;51448;51.660;5.824;2023-05-21T02:48:46;101676.53;;;13.92;86.67
61119;BME280;51448;51.660;5.824;2023-05-21T02:51:34;101685.44;;;13.87;86.16
61119;BME280;51448;51.660;5.824;2023-05-21T02:54:22;101673.22;;;13.83;86.26
61119;BME280;51448;51.660;5.824;2023-05-21T02:57:10;101676.88;;;13.79;86.67
61119;BME280;51448;51.660;5.824;2023-05-21T02:59:58;101678.72;;;13.76;86.80
61119;BME280;51448;51.660;5.824;2023-05-21T03:02:46;101673.56;;;13.71;86.43
61119;BME280;51448;51.660;5.824;2023-05-21T03:05:34;101669.28;;;13.67;87.17
61119;BME280;51448;51.660;5.824;2023-05-21T03:08:23;101672.06;;;13.62;86.94
61119;BME280;51448;51.660;5.824;2023-05-21T03:11:11;101662.47;;;13.58;87.25
61119;BME280;51448;51.660;5.824;2023-05-21T03:13:59;101660.78;;;13.56;87.55
61119;BME280;51448;51.660;5.824;2023-05-21T03:16:47;101667.06;;;13.52;87.91
61119;BME280;51448;51.660;5.824;2023-05-21T03:19:37;101655.72;;;13.48;87.84
61119;BME280;51448;51.660;5.824;2023-05-21T03:22:25;101656.69;;;13.44;87.56
61119;BME280;51448;51.660;5.824;2023-05-21T03:25:13;101657.69;;;13.40;88.07
61119;BME280;51448;51.660;5.824;2023-05-21T03:28:01;101653.34;;;13.37;87.95
61119;BME280;51448;51.660;5.824;2023-05-21T03:31:09;101654.28;;;13.35;88.24
61119;BME280;51448;51.660;5.824;2023-05-21T03:34:08;101649.97;;;13.32;88.18
61119;BME280;51448;51.660;5.824;2023-05-21T03:36:56;101651.78;;;13.30;88.65
61119;BME280;51448;51.660;5.824;2023-05-21T03:39:44;101643.84;;;13.28;88.73
61119;BME280;51448;51.660;5.824;2023-05-21T03:42:32;101650.09;;;13.26;88.75
61119;BME280;51448;51.660;5.824;2023-05-21T03:45:20;101659.81;;;13.24;89.11
61119;BME280;51448;51.660;5.824;2023-05-21T03:48:28;101656.31;;;13.23;89.40
61119;BME280;51448;51.660;5.824;2023-05-21T03:51:16;101648.44;;;13.22;89.33
61119;BME280;51448;51.660;5.824;2023-05-21T03:54:04;101654.56;;;13.22;89.42
61119;BME280;51448;51.660;5.824;2023-05-21T03:56:54;101646.72;;;13.21;89.74
61119;BME280;51448;51.660;5.824;2023-05-21T03:59:43;101655.53;;;13.20;90.10
61119;BME280;51448;51.660;5.824;2023-05-21T04:02:31;101650.25;;;13.20;89.78
61119;BME280;51448;51.660;5.824;2023-05-21T04:05:19;101653.81;;;13.19;90.03
61119;BME280;51448;51.660;5.824;2023-05-21T04:08:07;101649.38;;;13.19;89.95
61119;BME280;51448;51.660;5.824;2023-05-21T04:10:56;101657.34;;;13.18;89.93
61119;BME280;51448;51.660;5.824;2023-05-21T04:13:44;101652.91;;;13.18;90.14
61119;BME280;51448;51.660;5.824;2023-05-21T04:16:32;101651.19;;;13.17;90.17
61119;BME280;51448;51.660;5.824;2023-05-21T04:19:23;101658.19;;;13.18;90.25
61119;BME280;51448;51.660;5.824;2023-05-21T04:22:11;101659.09;;;13.19;90.43
61119;BME280;51448;51.660;5.824;2023-05-21T04:24:59;101666.13;;;13.18;90.71
61119;BME280;51448;51.660;5.824;2023-05-21T04:27:51;101663.47;;;13.18;90.83
61119;BME280;51448;51.660;5.824;2023-05-21T04:30:39;101659.91;;;13.21;90.87
61119;BME280;51448;51.660;5.824;2023-05-21T04:33:28;101663.41;;;13.21;91.31
61119;BME280;51448;51.660;5.824;2023-05-21T04:36:16;101665.06;;;13.25;91.45
61119;BME280;51448;51.660;5.824;2023-05-21T04:39:04;101663.25;;;13.27;91.08
61119;BME280;51448;51.660;5.824;2023-05-21T04:41:53;101664.97;;;13.30;91.42
61119;BME280;51448;51.660;5.824;2023-05-21T04:44:43;101669.31;;;13.33;91.84
61119;BME280;51448;51.660;5.824;2023-05-21T04:47:32;101672.78;;;13.35;91.79
61119;BME280;51448;51.660;5.824;2023-05-21T04:50:23;101677.06;;;13.39;92.66
61119;BME280;51448;51.660;5.824;2023-05-21T04:53:10;101679.69;;;13.40;92.44
61119;BME280;51448;51.660;5.824;2023-05-21T04:55:59;101673.41;;;13.44;92.46
61119;BME280;51448;51.660;5.824;2023-05-21T04:58:47;101674.22;;;13.48;92.58
61119;BME280;51448;51.660;5.824;2023-05-21T05:01:35;101675.91;;;13.51;92.50
61119;BME280;51448;51.660;5.824;2023-05-21T05:04:24;101673.13;;;13.55;92.41
61119;BME280;51448;51.660;5.824;2023-05-21T05:07:13;101670.38;;;13.60;92.22
61119;BME280;51448;51.660;5.824;2023-05-21T05:10:01;101676.38;;;13.65;92.71
61119;BME280;51448;51.660;5.824;2023-05-21T05:12:52;101674.53;;;13.68;92.34
61119;BME280;51448;51.660;5.824;2023-05-21T05:15:40;101673.50;;;13.74;92.30
61119;BME280;51448;51.660;5.824;2023-05-21T05:18:28;101665.47;;;13.77;93.03
61119;BME280;51448;51.660;5.824;2023-05-21T05:21:16;101674.09;;;13.84;92.54
61119;BME280;51448;51.660;5.824;2023-05-21T05:24:04;101667.75;;;13.89;92.67
61119;BME280;51448;51.660;5.824;2023-05-21T05:26:53;101654.38;;;13.96;92.93
61119;BME280;51448;51.660;5.824;2023-05-21T05:29:40;101659.50;;;14.00;92.50
61119;BME280;51448;51.660;5.824;2023-05-21T05:32:28;101652.31;;;14.05;92.85
61119;BME280;51448;51.660;5.824;2023-05-21T05:35:16;101657.47;;;14.10;92.52
61119;BME280;51448;51.660;5.824;2023-05-21T05:38:04;101659.13;;;14.14;92.70
61119;BME280;51448;51.660;5.824;2023-05-21T05:40:52;101659.84;;;14.19;92.60
61119;BME280;51448;51.660;5.824;2023-05-21T05:43:41;101657.88;;;14.26;92.89
61119;BME280;51448;51.660;5.824;2023-05-21T05:46:28;101658.59;;;14.31;92.36
61119;BME280;51448;51.660;5.824;2023-05-21T05:49:17;101668.13;;;14.37;92.61
61119;BME280;51448;51.660;5.824;2023-05-21T05:52:05;101660.06;;;14.41;92.04
61119;BME280;51448;51.660;5.824;2023-05-21T05:54:53;101655.44;;;14.48;92.12
61119;BME280;51448;51.660;5.824;2023-05-21T05:57:41;101655.25;;;14.54;91.94
61119;BME280;51448;51.660;5.824;2023-05-21T06:00:34;101657.69;;;14.62;92.04
61119;BME280;51448;51.660;5.824;2023-05-21T06:03:23;101659.22;;;14.69;91.55
61119;BME280;51448;51.660;5.824;2023-05-21T06:06:13;101658.19;;;14.75;91.74
61119;BME280;51448;51.660;5.824;2023-05-21T06:09:01;101665.03;;;14.80;91.62
61119;BME280;51448;51.660;5.824;2023-05-21T06:11:50;101669.09;;;14.91;91.22
61119;BME280;51448;51.660;5.824;2023-05-21T06:14:38;101662.72;;;14.98;91.06
61119;BME280;51448;51.660;5.824;2023-05-21T06:17:26;101663.31;;;15.06;90.77
61119;BME280;51448;51.660;5.824;2023-05-21T06:20:14;101667.47;;;15.13;90.84
61119;BME280;51448;51.660;5.824;2023-05-21T06:23:03;101664.63;;;15.19;90.46
61119;BME280;51448;51.660;5.824;2023-05-21T06:25:53;101668.91;;;15.23;90.59
61119;BME280;51448;51.660;5.824;2023-05-21T06:28:40;101680.22;;;15.28;89.97
61119;BME280;51448;51.660;5.824;2023-05-21T06:31:30;101667.56;;;15.37;89.75
61119;BME280;51448;51.660;5.824;2023-05-21T06:34:19;101664.69;;;15.43;89.87
61119;BME280;51448;51.660;5.824;2023-05-21T06:37:07;101676.00;;;15.48;89.38
61119;BME280;51448;51.660;5.824;2023-05-21T06:39:55;101670.59;;;15.51;89.06
61119;BME280;51448;51.660;5.824;2023-05-21T06:42:43;101667.91;;;15.53;89.13
61119;BME280;51448;51.660;5.824;2023-05-21T06:45:57;101666.97;;;15.54;89.31
61119;BME280;51448;51.660;5.824;2023-05-21T06:48:57;101662.31;;;15.60;89.25
61119;BME280;51448;51.660;5.824;2023-05-21T06:51:45;101656.84;;;15.65;88.77
61119;BME280;51448;51.660;5.824;2023-05-21T06:54:33;101660.25;;;15.68;88.83
61119;BME280;51448;51.660;5.824;2023-05-21T06:57:21;101653.94;;;15.73;88.52
61119;BME280;51448;51.660;5.824;2023-05-21T07:00:10;101655.69;;;15.74;88.46
61119;BME280;51448;51.660;5.824;2023-05-21T07:02:59;101660.94;;;15.75;88.58
61119;BME280;51448;51.660;5.824;2023-05-21T07:05:47;101659.78;;;15.82;88.61
61119;BME280;51448;51.660;5.824;2023-05-21T07:08:35;101657.72;;;15.91;88.23
61119;BME280;51448;51.660;5.824;2023-05-21T07:11:23;101652.94;;;16.00;87.97
61119;BME280;51448;51.660;5.824;2023-05-21T07:14:16;101646.97;;;16.17;88.16
61119;BME280;51448;51.660;5.824;2023-05-21T07:17:04;101643.72;;;16.33;86.99
61119;BME280;51448;51.660;5.824;2023-05-21T07:19:53;101642.38;;;16.44;87.23
61119;BME280;51448;51.660;5.824;2023-05-21T07:22:42;101639.09;;;16.60;86.85
61119;BME280;51448;51.660;5.824;2023-05-21T07:25:31;101638.13;;;16.84;86.49
61119;BME280;51448;51.660;5.824;2023-05-21T07:28:19;101636.69;;;17.18;86.04
61119;BME280;51448;51.660;5.824;2023-05-21T07:31:07;101640.41;;;17.55;85.53
61119;BME280;51448;51.660;5.824;2023-05-21T07:34:00;101639.06;;;17.86;83.19
61119;BME280;51448;51.660;5.824;2023-05-21T07:36:51;101640.63;;;17.90;81.59
61119;BME280;51448;51.660;5.824;2023-05-21T07:39:39;101637.13;;;17.89;82.07
61119;BME280;51448;51.660;5.824;2023-05-21T07:42:29;101626.75;;;18.02;81.85
61119;BME280;51448;51.660;5.824;2023-05-21T07:45:18;101629.56;;;18.18;82.43
61119;BME280;51448;51.660;5.824;2023-05-21T07:48:06;101631.28;;;18.38;82.16
61119;BME280;51448;51.660;5.824;2023-05-21T07:50:58;101636.34;;;18.62;81.90
61119;BME280;51448;51.660;5.824;2023-05-21T07:53:47;101633.38;;;18.87;80.47
61119;BME280;51448;51.660;5.824;2023-05-21T07:56:38;101638.88;;;19.01;79.53
61119;BME280;51448;51.660;5.824;2023-05-21T07:59:28;101633.13;;;19.09;77.63
61119;BME280;51448;51.660;5.824;2023-05-21T08:02:16;101637.00;;;19.03;77.53
61119;BME280;51448;51.660;5.824;2023-05-21T08:05:05;101639.88;;;18.99;77.32
61119;BME280;51448;51.660;5.824;2023-05-21T08:07:54;101638.47;;;18.92;78.15
61119;BME280;51448;51.660;5.824;2023-05-21T08:10:43;101626.53;;;18.99;78.70
61119;BME280;51448;51.660;5.824;2023-05-21T08:13:32;101630.00;;;19.01;77.22
61119;BME280;51448;51.660;5.824;2023-05-21T08:16:22;101630.09;;;18.99;77.62
61119;BME280;51448;51.660;5.824;2023-05-21T08:19:10;101632.22;;;19.10;77.59
61119;BME280;51448;51.660;5.824;2023-05-21T08:21:58;101632.03;;;19.30;77.98
61119;BME280;51448;51.660;5.824;2023-05-21T08:24:46;101632.19;;;19.45;77.60
61119;BME280;51448;51.660;5.824;2023-05-21T08:27:34;101630.28;;;19.47;76.27
61119;BME280;51448;51.660;5.824;2023-05-21T08:30:23;101635.44;;;19.50;76.66
61119;BME280;51448;51.660;5.824;2023-05-21T08:33:11;101616.91;;;19.64;76.10
61119;BME280;51448;51.660;5.824;2023-05-21T08:35:59;101618.47;;;19.86;75.79
61119;BME280;51448;51.660;5.824;2023-05-21T08:38:48;101620.03;;;20.06;75.54
61119;BME280;51448;51.660;5.824;2023-05-21T08:41:45;101625.19;;;20.25;74.25
61119;BME280;51448;51.660;5.824;2023-05-21T08:44:36;101621.34;;;20.30;73.73
61119;BME280;51448;51.660;5.824;2023-05-21T08:47:33;101618.91;;;20.42;73.65
61119;BME280;51448;51.660;5.824;2023-05-21T08:50:26;101609.31;;;20.54;73.16
61119;BME280;51448;51.660;5.824;2023-05-21T08:53:17;101602.34;;;20.67;72.95
61119;BME280;51448;51.660;5.824;2023-05-21T08:56:16;101602.22;;;20.84;73.38
61119;BME280;51448;51.660;5.824;2023-05-21T08:59:17;101606.84;;;20.97;72.69
61119;BME280;51448;51.660;5.824;2023-05-21T09:02:06;101607.72;;;21.12;72.62
61119;BME280;51448;51.660;5.824;2023-05-21T09:04:57;101599.34;;;21.18;72.03
61119;BME280;51448;51.660;5.824;2023-05-21T09:07:48;101603.16;;;21.14;70.91
61119;BME280;51448;51.660;5.824;2023-05-21T09:10:53;101593.59;;;21.09;71.69
61119;BME280;51448;51.660;5.824;2023-05-21T09:13:48;101597.78;;;21.14;71.52
61119;BME280;51448;51.660;5.824;2023-05-21T09:16:45;101599.34;;;21.18;70.28
61119;BME280;51448;51.660;5.824;2023-05-21T09:19:37;101594.25;;;21.13;70.76
61119;BME280;51448;51.660;5.824;2023-05-21T09:22:26;101590.63;;;21.14;71.19
61119;BME280;51448;51.660;5.824;2023-05-21T09:25:15;101584.25;;;21.17;71.21
61119;BME280;51448;51.660;5.824;2023-05-21T09:28:11;101587.50;;;21.22;70.28
61119;BME280;51448;51.660;5.824;2023-05-21T09:31:02;101583.88;;;21.23;70.68
61119;BME280;51448;51.660;5.824;2023-05-21T09:33:50;101580.72;;;21.30;69.80
61119;BME280;51448;51.660;5.824;2023-05-21T09:36:39;101585.66;;;21.22;70.19
61119;BME280;51448;51.660;5.824;2023-05-21T09:39:27;101591.22;;;21.19;70.04
61119;BME280;51448;51.660;5.824;2023-05-21T09:42:21;101596.75;;;21.16;69.92
61119;BME280;51448;51.660;5.824;2023-05-21T09:45:10;101593.78;;;21.06;70.09
61119;BME280;51448;51.660;5.824;2023-05-21T09:47:59;101588.13;;;20.97;70.60
61119;BME280;51448;51.660;5.824;2023-05-21T09:50:47;101580.25;;;20.94;70.64
61119;BME280;51448;51.660;5.824;2023-05-21T09:53:35;101581.41;;;20.89;70.28
61119;BME280;51448;51.660;5.824;2023-05-21T09:56:25;101580.75;;;20.86;71.45
61119;BME280;51448;51.660;5.824;2023-05-21T09:59:17;101583.22;;;20.89;71.15
61119;BME280;51448;51.660;5.824;2023-05-21T10:02:19;101578.72;;;20.89;71.03
61119;BME280;51448;51.660;5.824;2023-05-21T10:05:09;101584.28;;;20.86;71.55
61119;BME280;51448;51.660;5.824;2023-05-21T10:08:00;101575.03;;;20.92;71.96
61119;BME280;51448;51.660;5.824;2023-05-21T10:10:49;101575.22;;;21.03;72.05
61119;BME280;51448;51.660;5.824;2023-05-21T10:13:42;101565.97;;;21.09;71.92
61119;BME280;51448;51.660;5.824;2023-05-21T10:16:32;101566.66;;;21.13;71.81
61119;BME280;51448;51.660;5.824;2023-05-21T10:19:23;101565.03;;;21.24;71.47
61119;BME280;51448;51.660;5.824;2023-05-21T10:22:12;101566.41;;;21.32;71.37
61119;BME280;51448;51.660;5.824;2023-05-21T10:25:00;101562.75;;;21.33;70.90
61119;BME280;51448;51.660;5.824;2023-05-21T10:27:50;101568.72;;;21.52;71.52
61119;BME280;51448;51.660;5.824;2023-05-21T10:30:42;101576.53;;;21.69;71.46
61119;BME280;51448;51.660;5.824;2023-05-21T10:33:31;101566.97;;;21.80;70.58
61119;BME280;51448;51.660;5.824;2023-05-21T10:36:29;101558.94;;;21.80;71.02
61119;BME280;51448;51.660;5.824;2023-05-21T10:39:20;101563.63;;;21.90;71.47
61119;BME280;51448;51.660;5.824;2023-05-21T10:45:30;101558.47;;;22.15;69.49
61119;BME280;51448;51.660;5.824;2023-05-21T10:51:58;101554.88;;;22.43;68.58
61119;BME280;51448;51.660;5.824;2023-05-21T10:55:22;101541.28;;;22.46;67.80
61119;BME280;51448;51.660;5.824;2023-05-21T11:01:19;101541.53;;;22.68;67.64
61119;BME280;51448;51.660;5.824;2023-05-21T11:04:07;101534.47;;;22.80;66.93
61119;BME280;51448;51.660;5.824;2023-05-21T11:06:57;101534.03;;;22.86;65.82
61119;BME280;51448;51.660;5.824;2023-05-21T11:09:45;101535.25;;;22.95;65.75
61119;BME280;51448;51.660;5.824;2023-05-21T11:13:12;101521.59;;;22.98;65.92
61119;BME280;51448;51.660;5.824;2023-05-21T11:16:01;101531.00;;;23.05;66.12
61119;BME280;51448;51.660;5.824;2023-05-21T11:21:41;101511.22;;;23.19;65.50
61119;BME280;51448;51.660;5.824;2023-05-21T11:24:31;101508.66;;;23.30;65.03
61119;BME280;51448;51.660;5.824;2023-05-21T11:27:37;101510.66;;;23.40;65.11
61119;BME280;51448;51.660;5.824;2023-05-21T11:30:26;101507.22;;;23.50;65.44
61119;BME280;51448;51.660;5.824;2023-05-21T11:36:10;101498.69;;;23.69;64.32
61119;BME280;51448;51.660;5.824;2023-05-21T11:39:12;101495.66;;;23.74;63.26
61119;BME280;51448;51.660;5.824;2023-05-21T11:42:08;101491.72;;;23.67;63.55
61119;BME280;51448;51.660;5.824;2023-05-21T11:44:57;101493.53;;;23.66;63.21
61119;BME280;51448;51.660;5.824;2023-05-21T11:47:47;101482.28;;;23.61;63.53
61119;BME280;51448;51.660;5.824;2023-05-21T11:50:36;101490.09;;;23.64;63.57
61119;BME280;51448;51.660;5.824;2023-05-21T11:53:24;101491.28;;;23.73;63.71
61119;BME280;51448;51.660;5.824;2023-05-21T11:56:13;101485.25;;;23.82;62.66
61119;BME280;51448;51.660;5.824;2023-05-21T11:59:01;101487.25;;;23.92;63.65
61119;BME280;51448;51.660;5.824;2023-05-21T12:01:49;101486.81;;;23.98;64.06
61119;BME280;51448;51.660;5.824;2023-05-21T12:04:37;101473.66;;;24.06;62.05
61119;BME280;51448;51.660;5.824;2023-05-21T12:07:26;101488.63;;;23.97;62.18
61119;BME280;51448;51.660;5.824;2023-05-21T12:10:19;101482.38;;;23.97;63.71
61119;BME280;51448;51.660;5.824;2023-05-21T12:13:08;101480.00;;;24.05;62.88
61119;BME280;51448;51.660;5.824;2023-05-21T12:15:57;101469.25;;;24.05;62.54
61119;BME280;51448;51.660;5.824;2023-05-21T12:18:45;101474.50;;;24.06;62.94
61119;BME280;51448;51.660;5.824;2023-05-21T12:21:34;101463.50;;;24.09;61.40
61119;BME280;51448;51.660;5.824;2023-05-21T12:24:22;101463.75;;;24.06;62.16
61119;BME280;51448;51.660;5.824;2023-05-21T12:27:11;101464.78;;;24.17;61.83
61119;BME280;51448;51.660;5.824;2023-05-21T12:29:59;101468.38;;;24.28;62.64
61119;BME280;51448;51.660;5.824;2023-05-21T12:32:47;101458.03;;;24.46;61.96
61119;BME280;51448;51.660;5.824;2023-05-21T12:35:36;101463.69;;;24.55;61.95
61119;BME280;51448;51.660;5.824;2023-05-21T12:38:29;101455.88;;;24.52;62.03
61119;BME280;51448;51.660;5.824;2023-05-21T12:41:18;101458.31;;;24.55;61.41
61119;BME280;51448;51.660;5.824;2023-05-21T12:44:07;101444.91;;;24.66;60.82
61119;BME280;51448;51.660;5.824;2023-05-21T12:46:56;101437.31;;;24.71;60.89
61119;BME280;51448;51.660;5.824;2023-05-21T12:49:45;101437.56;;;24.79;60.96
61119;BME280;51448;51.660;5.824;2023-05-21T12:52:35;101427.31;;;24.84;60.29
61119;BME280;51448;51.660;5.824;2023-05-21T12:55:24;101427.31;;;24.84;61.22
61119;BME280;51448;51.660;5.824;2023-05-21T12:58:15;101440.91;;;24.94;60.35
61119;BME280;51448;51.660;5.824;2023-05-21T13:01:09;101434.41;;;24.97;60.76
61119;BME280;51448;51.660;5.824;2023-05-21T13:03:58;101443.69;;;25.04;60.32
61119;BME280;51448;51.660;5.824;2023-05-21T13:06:46;101437.22;;;25.18;60.46
61119;BME280;51448;51.660;5.824;2023-05-21T13:09:34;101447.13;;;25.17;59.00
61119;BME280;51448;51.660;5.824;2023-05-21T13:12:23;101447.75;;;24.98;59.60
61119;BME280;51448;51.660;5.824;2023-05-21T13:15:12;101453.97;;;24.87;61.04
61119;BME280;51448;51.660;5.824;2023-05-21T13:18:00;101459.34;;;24.87;61.03
61119;BME280;51448;51.660;5.824;2023-05-21T13:20:48;101460.09;;;25.01;60.94
61119;BME280;51448;51.660;5.824;2023-05-21T13:23:38;101467.09;;;25.15;60.63
61119;BME280;51448;51.660;5.824;2023-05-21T13:26:25;101463.06;;;25.32;59.50
61119;BME280;51448;51.660;5.824;2023-05-21T13:29:13;101470.16;;;25.33;59.06
61119;BME280;51448;51.660;5.824;2023-05-21T13:32:01;101457.78;;;25.19;58.89
61119;BME280;51448;51.660;5.824;2023-05-21T13:34:49;101465.00;;;25.07;59.08
61119;BME280;51448;51.660;5.824;2023-05-21T13:37:40;101469.66;;;25.05;59.54
61119;BME280;51448;51.660;5.824;2023-05-21T13:40:28;101465.00;;;25.07;59.09
61119;BME280;51448;51.660;5.824;2023-05-21T13:43:16;101457.41;;;25.12;59.94
61119;BME280;51448;51.660;5.824;2023-05-21T13:46:04;101453.75;;;25.24;58.86
61119;BME280;51448;51.660;5.824;2023-05-21T13:48:52;101452.66;;;25.38;59.52
61119;BME280;51448;51.660;5.824;2023-05-21T13:51:39;101445.53;;;25.60;59.10
61119;BME280;51448;51.660;5.824;2023-05-21T13:54:28;101442.41;;;25.76;58.78
61119;BME280;51448;51.660;5.824;2023-05-21T13:57:16;101445.19;;;25.85;57.26
61119;BME280;51448;51.660;5.824;2023-05-21T14:00:04;101447.28;;;25.93;57.68
61119;BME280;51448;51.660;5.824;2023-05-21T14:02:56;101446.91;;;25.98;56.84
61119;BME280;51448;51.660;5.824;2023-05-21T14:05:44;101447.38;;;26.03;56.86
61119;BME280;51448;51.660;5.824;2023-05-21T14:08:34;101443.50;;;26.17;56.74
61119;BME280;51448;51.660;5.824;2023-05-21T14:11:22;101452.59;;;26.16;56.58
61119;BME280;51448;51.660;5.824;2023-05-21T14:14:10;101446.72;;;26.10;57.03
61119;BME280;51448;51.660;5.824;2023-05-21T14:17:00;101443.34;;;25.97;56.59
61119;BME280;51448;51.660;5.824;2023-05-21T14:19:48;101439.69;;;25.87;57.13
61119;BME280;51448;51.660;5.824;2023-05-21T14:22:36;101442.63;;;25.84;57.27
61119;BME280;51448;51.660;5.824;2023-05-21T14:25:24;101438.03;;;25.75;56.17
61119;BME280;51448;51.660;5.824;2023-05-21T14:28:12;101440.16;;;25.60;57.01
61119;BME280;51448;51.660;5.824;2023-05-21T14:31:00;101435.00;;;25.57;58.48
61119;BME280;51448;51.660;5.824;2023-05-21T14:33:48;101424.84;;;25.60;58.86
61119;BME280;51448;51.660;5.824;2023-05-21T14:36:36;101428.31;;;25.83;59.33
61119;BME280;51448;51.660;5.824;2023-05-21T14:39:24;101424.44;;;26.08;58.75
61119;BME280;51448;51.660;5.824;2023-05-21T14:42:11;101422.34;;;26.33;57.51
61119;BME280;51448;51.660;5.824;2023-05-21T14:44:59;101418.75;;;26.44;55.54
61119;BME280;51448;51.660;5.824;2023-05-21T14:48:04;101417.53;;;26.37;55.02
61119;BME280;51448;51.660;5.824;2023-05-21T14:50:55;101424.00;;;26.24;55.96
61119;BME280;51448;51.660;5.824;2023-05-21T14:53:42;101409.91;;;26.21;56.33
61119;BME280;51448;51.660;5.824;2023-05-21T14:56:30;101417.28;;;26.19;56.12
61119;BME280;51448;51.660;5.824;2023-05-21T14:59:18;101419.00;;;26.20;56.63
61119;BME280;51448;51.660;5.824;2023-05-21T15:02:06;101416.94;;;26.33;56.22
61119;BME280;51448;51.660;5.824;2023-05-21T15:04:54;101415.88;;;26.45;55.98
61119;BME280;51448;51.660;5.824;2023-05-21T15:07:43;101409.47;;;26.58;55.42